Time;durP1;ratioP1;P1;durP2;ratioP2;P2;SDS_P1;SDS_P2;PMS_P1;PMS_P2;Temp;Humidity;BMP_temperature;BMP_pressure;BME280_temperature;BME280_humidity;BME280_pressure;Samples;Min_cycle;Max_cycle;Signal;HPM_P1;HPM_P2
2022/05/02 00:00:57;;;;;;;10.82;8.35;;;;;;;13.37;60.23;99231.19;5106490;28;20056;-74
2022/05/02 00:03:30;;;;;;;9.27;8.27;;;;;;;13.38;60.17;99229.38;5106243;28;20046;-72
2022/05/02 00:06:02;;;;;;;8.25;7.03;;;;;;;13.40;59.82;99230.97;5105322;28;20040;-72
2022/05/02 00:08:34;;;;;;;9.00;8.10;;;;;;;13.42;59.90;99234.41;5105479;28;20204;-74
2022/05/02 00:11:07;;;;;;;10.23;8.93;;;;;;;13.40;60.02;99227.47;5104520;28;20058;-73
2022/05/02 00:13:39;;;;;;;9.68;8.68;;;;;;;13.37;60.47;99231.19;5105925;28;20036;-73
2022/05/02 00:16:13;;;;;;;9.90;8.77;;;;;;;12.81;60.31;99140.13;5106170;28;20085;-73
2022/05/02 00:18:45;;;;;;;10.90;9.80;;;;;;;13.31;60.36;99214.78;5106208;28;20058;-72
2022/05/02 00:21:15;;;;;;;9.50;8.50;;;;;;;13.28;60.59;99210.53;5106098;28;20368;-73
2022/05/02 00:23:45;;;;;;;11.25;9.77;;;;;;;13.22;61.04;99210.09;5104993;28;20089;-72
2022/05/02 00:26:15;;;;;;;10.15;9.13;;;;;;;13.18;60.81;99209.44;5105821;28;20204;-72
2022/05/02 00:28:47;;;;;;;10.15;9.05;;;;;;;13.16;61.00;99214.88;5105716;28;20200;-76
2022/05/02 00:31:17;;;;;;;11.30;10.02;;;;;;;13.20;60.88;99206.69;5105109;28;20227;-72
2022/05/02 00:33:45;;;;;;;11.75;9.85;;;;;;;13.21;60.88;99205.72;5104788;28;20354;-74
2022/05/02 00:36:16;;;;;;;10.73;9.02;;;;;;;13.15;60.86;99204.34;5105150;28;20065;-73
2022/05/02 00:38:46;;;;;;;10.63;9.50;;;;;;;12.93;60.50;99161.53;5105458;28;20215;-73
2022/05/02 00:41:17;;;;;;;10.82;9.52;;;;;;;12.94;60.81;99163.22;5105936;28;20043;-73
2022/05/02 00:43:46;;;;;;;10.23;9.05;;;;;;;13.20;60.84;99202.22;5105608;28;20040;-73
2022/05/02 00:46:22;;;;;;;11.40;9.45;;;;;;;13.14;61.42;99191.97;5105532;28;20040;-73
2022/05/02 00:48:53;;;;;;;12.35;8.57;;;;;;;13.19;60.54;99194.34;5105830;28;20089;-74
2022/05/02 00:51:22;;;;;;;10.48;8.57;;;;;;;13.19;60.60;99187.19;5105736;28;20303;-73
2022/05/02 00:53:53;;;;;;;10.30;8.32;;;;;;;13.17;60.53;99191.78;5105702;28;20301;-74
2022/05/02 00:56:22;;;;;;;9.70;8.18;;;;;;;13.18;60.85;99196.13;5105551;28;20308;-73
2022/05/02 00:58:53;;;;;;;9.95;8.63;;;;;;;13.16;60.78;99185.59;5105438;28;20039;-73
2022/05/02 01:01:23;;;;;;;11.90;9.32;;;;;;;13.18;60.58;99189.97;5105415;28;20195;-74
2022/05/02 01:03:53;;;;;;;8.77;7.70;;;;;;;13.20;60.57;99190.72;5105551;28;20314;-73
2022/05/02 01:09:12;;;;;;;9.73;8.43;;;;;;;13.11;60.48;99190.38;5104516;28;20250;-73
2022/05/02 01:11:44;;;;;;;10.25;7.75;;;;;;;13.12;60.50;99192.09;5105615;28;20036;-73
2022/05/02 01:14:16;;;;;;;8.32;7.50;;;;;;;13.11;60.71;99187.72;5121440;28;20227;-73
2022/05/02 01:16:50;;;;;;;8.60;7.78;;;;;;;13.09;60.70;99188.78;5105236;28;20044;-73
2022/05/02 01:19:22;;;;;;;9.13;7.57;;;;;;;13.07;60.71;99190.69;5105566;28;20101;-73
2022/05/02 01:21:56;;;;;;;10.02;8.25;;;;;;;13.06;60.76;99191.66;5106734;28;20040;-74
2022/05/02 01:24:37;;;;;;;8.63;7.27;;;;;;;13.05;61.03;99181.97;5109252;28;20040;-73
2022/05/02 01:27:10;;;;;;;8.93;7.68;;;;;;;13.04;60.71;99182.94;5109354;28;20085;-73
2022/05/02 01:29:44;;;;;;;8.73;7.47;;;;;;;13.02;60.64;99182.19;5109176;28;20230;-74
2022/05/02 01:32:16;;;;;;;8.48;7.57;;;;;;;12.90;60.93;99181.19;5109122;28;20040;-73
2022/05/02 01:34:48;;;;;;;10.57;7.82;;;;;;;12.63;61.07;99143.16;5109231;28;20049;-73
2022/05/02 01:37:22;;;;;;;9.80;8.20;;;;;;;12.92;61.07;99173.97;5108836;28;20121;-73
2022/05/02 01:39:54;;;;;;;9.80;8.73;;;;;;;12.90;61.02;99178.53;5125196;28;20280;-73
2022/05/02 01:42:26;;;;;;;10.65;9.18;;;;;;;12.35;61.21;99089.19;5108903;28;20093;-73
2022/05/02 01:44:58;;;;;;;9.70;8.70;;;;;;;12.83;61.26;99175.44;5108871;28;20048;-73
2022/05/02 01:47:31;;;;;;;8.25;7.40;;;;;;;12.81;61.31;99179.16;5109074;28;20085;-73
2022/05/02 01:50:03;;;;;;;9.07;7.30;;;;;;;12.78;61.25;99174.91;5108196;28;20089;-73
2022/05/02 01:52:37;;;;;;;8.82;7.55;;;;;;;12.75;61.36;99174.25;5109080;28;20082;-74
2022/05/02 01:55:09;;;;;;;8.90;7.43;;;;;;;12.75;61.33;99171.59;5108859;28;20089;-73
2022/05/02 01:57:41;;;;;;;8.65;7.75;;;;;;;12.79;61.35;99175.75;5108586;28;20040;-73
2022/05/02 02:00:14;;;;;;;8.88;6.70;;;;;;;12.46;61.34;99126.53;5108634;28;20301;-73
2022/05/02 02:02:47;;;;;;;7.43;6.72;;;;;;;12.71;61.39;99186.03;5108839;28;20040;-73
2022/05/02 02:08:10;;;;;;;9.38;7.45;;;;;;;12.57;61.82;99180.78;5108681;28;20081;-75
2022/05/02 02:10:42;;;;;;;9.65;7.82;;;;;;;12.60;61.48;99176.13;5108680;28;20292;-74
2022/05/02 02:13:15;;;;;;;7.93;6.75;;;;;;;12.64;61.45;99174.13;5107541;28;20285;-74
2022/05/02 02:15:48;;;;;;;10.07;7.05;;;;;;;12.65;61.50;99176.66;5108215;28;20044;-74
2022/05/02 02:18:21;;;;;;;10.50;7.78;;;;;;;12.62;61.29;99198.16;5108203;28;20203;-73
2022/05/02 02:20:55;;;;;;;9.15;7.80;;;;;;;12.46;62.11;99177.03;5108421;28;20039;-73
2022/05/02 02:23:29;;;;;;;10.07;9.07;;;;;;;12.36;62.18;99181.25;5108431;28;20093;-74
2022/05/02 02:26:01;;;;;;;9.30;7.93;;;;;;;12.32;62.12;99163.78;5107550;28;20252;-73
2022/05/02 02:28:34;;;;;;;9.25;7.05;;;;;;;12.47;61.73;99164.59;5108140;28;20081;-75
2022/05/02 02:31:06;;;;;;;10.98;8.30;;;;;;;12.45;61.79;99167.34;5108203;28;20081;-74
2022/05/02 02:33:38;;;;;;;9.18;7.72;;;;;;;12.44;61.84;99164.78;5107421;28;20044;-74
2022/05/02 02:36:10;;;;;;;10.07;7.53;;;;;;;12.44;61.92;99165.66;5108012;28;20044;-74
2022/05/02 02:38:44;;;;;;;8.60;7.60;;;;;;;12.44;61.85;99167.47;5107744;28;20361;-74
2022/05/02 02:41:16;;;;;;;8.68;7.60;;;;;;;12.36;61.81;99165.31;5107574;28;20296;-74
2022/05/02 02:43:47;;;;;;;10.32;8.18;;;;;;;12.07;61.84;99111.38;5108008;28;20124;-74
2022/05/02 02:46:17;;;;;;;10.23;8.00;;;;;;;12.35;62.10;99168.91;5106911;28;20101;-75
2022/05/02 02:48:48;;;;;;;10.30;8.45;;;;;;;12.04;62.06;99119.53;5107198;28;20234;-73
2022/05/02 02:51:17;;;;;;;8.73;7.80;;;;;;;12.06;62.05;99116.78;5107581;28;20040;-73
2022/05/02 02:53:51;;;;;;;9.63;8.55;;;;;;;12.34;61.87;99169.00;5124069;28;20064;-74
2022/05/02 02:56:23;;;;;;;9.40;7.72;;;;;;;12.32;61.98;99169.09;5107732;28;20040;-73
2022/05/02 02:58:52;;;;;;;9.15;8.20;;;;;;;12.31;62.00;99164.75;5107470;28;20036;-73
2022/05/02 03:01:23;;;;;;;9.98;8.20;;;;;;;12.31;62.04;99171.88;5124148;28;20255;-73
2022/05/02 03:03:53;;;;;;;8.85;7.45;;;;;;;12.34;61.82;99169.88;5107570;28;20067;-73
2022/05/02 03:06:22;;;;;;;8.77;7.78;;;;;;;12.28;61.88;99169.41;5106722;28;20200;-73
2022/05/02 03:08:54;;;;;;;10.13;7.60;;;;;;;12.29;62.11;99173.78;5107271;28;20261;-73
2022/05/02 03:11:23;;;;;;;10.90;7.60;;;;;;;12.32;62.03;99171.78;5107454;28;20302;-74
2022/05/02 03:13:53;;;;;;;8.82;7.93;;;;;;;12.24;62.00;99162.59;5107481;28;20314;-74
2022/05/02 03:16:23;;;;;;;8.48;7.53;;;;;;;12.22;62.09;99173.31;5106995;28;20224;-74
2022/05/02 03:18:53;;;;;;;7.63;6.80;;;;;;;12.24;61.94;99166.09;5107316;28;20288;-74
2022/05/02 03:21:23;;;;;;;9.38;8.00;;;;;;;12.28;61.92;99169.41;5106955;28;20276;-73
2022/05/02 03:23:55;;;;;;;9.38;8.23;;;;;;;12.21;62.09;99168.97;5107180;28;20341;-71
2022/05/02 03:26:24;;;;;;;11.27;8.80;;;;;;;12.25;61.98;99156.31;5106832;28;20369;-73
2022/05/02 03:28:54;;;;;;;11.50;8.90;;;;;;;12.25;61.97;99153.66;5107365;28;20345;-72
2022/05/02 03:31:25;;;;;;;12.18;8.90;;;;;;;12.20;62.13;99156.63;5107062;28;20280;-72
2022/05/02 03:33:54;;;;;;;9.77;7.85;;;;;;;12.21;62.59;99149.50;5106711;28;20254;-72
2022/05/02 03:36:24;;;;;;;10.50;8.15;;;;;;;12.18;62.49;99155.88;5106610;28;20346;-72
2022/05/02 03:38:56;;;;;;;10.90;8.35;;;;;;;12.17;62.34;99148.84;5106503;28;20243;-73
2022/05/02 03:41:24;;;;;;;10.80;8.85;;;;;;;7.06;62.08;98298.25;5106363;28;20377;-72
2022/05/02 03:43:55;;;;;;;8.68;7.30;;;;;;;12.18;62.30;99145.25;5106445;28;20200;-74
2022/05/02 03:46:25;;;;;;;11.48;8.55;;;;;;;12.06;62.95;99144.19;5105315;28;20204;-74
2022/05/02 03:48:55;;;;;;;9.85;8.48;;;;;;;12.04;62.88;99147.91;5106360;28;20268;-73
2022/05/02 03:51:25;;;;;;;9.15;8.13;;;;;;;12.08;62.79;99147.59;5105801;28;20207;-72
2022/05/02 03:53:56;;;;;;;8.82;7.82;;;;;;;12.12;62.59;99142.94;5106304;28;20036;-72
2022/05/02 03:56:25;;;;;;;9.93;8.82;;;;;;;12.07;62.84;99150.38;5106154;28;20181;-72
2022/05/02 03:58:55;;;;;;;10.40;8.70;;;;;;;12.10;62.98;99153.69;5106205;28;20201;-72
2022/05/02 04:01:26;;;;;;;10.98;8.60;;;;;;;12.07;62.75;99148.56;5106269;28;20044;-72
2022/05/02 04:03:56;;;;;;;9.27;8.32;;;;;;;10.90;62.85;98949.91;5106448;28;20072;-72
2022/05/02 04:06:26;;;;;;;10.77;7.72;;;;;;;12.07;62.79;99145.91;5106424;28;20208;-72
2022/05/02 04:08:57;;;;;;;11.52;10.25;;;;;;;12.12;62.70;99138.50;5106073;28;20185;-72
2022/05/02 04:11:26;;;;;;;12.10;10.52;;;;;;;12.08;62.93;99155.56;5106319;28;20239;-72
2022/05/02 04:13:56;;;;;;;11.23;9.93;;;;;;;12.11;63.05;99142.09;5106264;28;20063;-72
2022/05/02 04:16:26;;;;;;;11.27;10.00;;;;;;;12.13;62.75;99148.16;5106170;28;20338;-72
2022/05/02 04:18:56;;;;;;;10.32;8.73;;;;;;;12.13;62.84;99142.84;5105084;28;20040;-72
2022/05/02 04:21:26;;;;;;;14.13;9.45;;;;;;;12.17;62.59;99139.06;5106094;28;20226;-72
2022/05/02 04:23:58;;;;;;;9.07;8.13;;;;;;;11.28;63.05;99012.09;5106184;28;20058;-72
2022/05/02 04:26:27;;;;;;;9.90;8.57;;;;;;;12.11;63.20;99141.25;5106153;28;20063;-73
2022/05/02 04:28:57;;;;;;;9.60;8.25;;;;;;;12.14;63.02;99146.38;5105963;28;20049;-73
2022/05/02 04:31:27;;;;;;;9.63;8.63;;;;;;;12.11;63.16;99149.22;5105941;28;20040;-72
2022/05/02 04:33:58;;;;;;;10.32;7.78;;;;;;;12.11;63.29;99143.91;5106145;28;20051;-73
2022/05/02 04:36:27;;;;;;;11.27;8.65;;;;;;;12.13;63.40;99149.97;5106001;28;20228;-72
2022/05/02 04:38:59;;;;;;;10.32;8.10;;;;;;;11.89;63.39;99110.72;5105833;28;20230;-72
2022/05/02 04:41:27;;;;;;;10.05;8.23;;;;;;;12.16;63.27;99155.09;5105599;28;20031;-73
2022/05/02 04:43:58;;;;;;;9.32;8.32;;;;;;;12.17;63.31;99162.13;5105083;28;20059;-73
2022/05/02 04:46:29;;;;;;;10.70;8.93;;;;;;;11.91;63.09;99110.63;5105611;28;20043;-73
2022/05/02 04:48:58;;;;;;;11.68;8.95;;;;;;;12.21;63.11;99153.00;5105610;28;20040;-73
2022/05/02 04:51:28;;;;;;;12.18;9.82;;;;;;;12.19;63.08;99150.47;5106095;28;20040;-73
2022/05/02 04:53:59;;;;;;;9.73;7.93;;;;;;;12.25;63.06;99154.53;5104656;28;20085;-73
2022/05/02 04:56:28;;;;;;;10.18;8.52;;;;;;;12.22;63.49;99159.19;5104951;28;20044;-73
2022/05/02 04:58:58;;;;;;;11.60;9.45;;;;;;;12.22;63.20;99167.16;5105688;28;20047;-73
2022/05/02 05:01:28;;;;;;;10.57;9.25;;;;;;;12.17;63.76;99173.63;5104799;28;20089;-73
2022/05/02 05:03:58;;;;;;;9.90;7.90;;;;;;;12.17;63.62;99178.94;5105437;28;20108;-73
2022/05/02 05:06:30;;;;;;;11.05;8.07;;;;;;;12.19;63.38;99177.03;5105631;28;20032;-73
2022/05/02 05:09:00;;;;;;;8.73;7.82;;;;;;;12.22;63.43;99175.97;5105420;28;20052;-73
2022/05/02 05:11:37;;;;;;;11.25;9.02;;;;;;;12.26;63.75;99172.16;5106104;28;20099;-73
2022/05/02 05:17:20;;;;;;;9.30;8.15;;;;;;;12.30;63.72;99170.16;5106577;28;20040;-73
2022/05/02 05:20:09;;;;;;;8.75;7.88;;;;;;;12.34;63.71;99179.63;5106027;28;20047;-73
2022/05/02 05:23:04;;;;;;;9.98;7.90;;;;;;;12.35;63.67;99190.16;5105491;28;20048;-73
2022/05/02 05:25:44;;;;;;;8.85;7.95;;;;;;;12.36;63.32;99178.59;5106407;28;20048;-73
2022/05/02 05:28:40;;;;;;;8.52;7.40;;;;;;;12.16;63.43;99144.47;5106350;28;20043;-73
2022/05/02 05:31:28;;;;;;;8.60;7.70;;;;;;;12.06;63.75;99138.88;5105534;28;20044;-73
2022/05/02 05:34:08;;;;;;;9.40;7.25;;;;;;;12.41;63.46;99187.13;5105254;28;20047;-73
2022/05/02 05:36:57;;;;;;;9.43;8.13;;;;;;;12.43;63.77;99187.88;5105257;28;20338;-73
2022/05/02 05:39:43;;;;;;;8.68;7.78;;;;;;;12.48;63.73;99182.25;5085171;28;20059;-73
2022/05/02 05:42:25;;;;;;;9.90;7.45;;;;;;;12.54;63.11;99192.47;5084989;28;20044;-73
2022/05/02 05:45:02;;;;;;;8.68;7.78;;;;;;;11.85;62.36;99065.88;5084910;28;20338;-73
2022/05/02 05:47:51;;;;;;;8.65;7.68;;;;;;;12.68;62.60;99178.28;5084079;28;20048;-72
2022/05/02 05:50:26;;;;;;;9.10;7.57;;;;;;;12.33;62.02;99112.34;5084864;28;20040;-73
2022/05/02 05:53:08;;;;;;;9.57;7.72;;;;;;;12.74;62.53;99189.34;5084796;28;20045;-73
2022/05/02 05:56:10;;;;;;;10.23;7.70;;;;;;;12.76;62.48;99176.81;5084854;28;20083;-73
2022/05/02 05:58:54;;;;;;;8.55;7.30;;;;;;;12.55;62.06;99126.88;5085088;28;20036;-73
2022/05/02 06:01:39;;;;;;;8.03;7.17;;;;;;;12.85;62.03;99191.28;5084083;28;20044;-72
2022/05/02 06:04:13;;;;;;;8.77;7.35;;;;;;;12.93;61.82;99174.81;5084764;28;20040;-73
2022/05/02 06:06:47;;;;;;;11.82;8.52;;;;;;;13.01;61.25;99168.03;5084958;28;20048;-72
2022/05/02 06:09:21;;;;;;;9.00;7.10;;;;;;;12.25;61.28;99060.66;5086675;28;20048;-73
2022/05/02 06:11:57;;;;;;;8.00;7.10;;;;;;;13.13;60.93;99192.94;5088254;28;20260;-73
2022/05/02 06:18:27;;;;;;;8.15;6.90;;;;;;;13.23;60.60;99174.53;5088248;28;20083;-72
2022/05/02 06:20:25;;;;;;;7.93;7.05;;;;;;;14.10;58.35;99169.25;5088309;28;20048;-73
2022/05/02 06:22:59;;;;;;;8.45;7.53;;;;;;;15.04;56.26;99162.22;5088298;28;20094;-72
2022/05/02 06:25:34;;;;;;;9.10;7.23;;;;;;;15.96;53.78;99145.19;5087268;28;20040;-73
2022/05/02 06:28:08;;;;;;;10.52;8.32;;;;;;;15.05;52.73;98986.94;5087755;28;20070;-73
2022/05/02 06:30:44;;;;;;;9.55;8.10;;;;;;;16.13;52.82;99151.84;5087768;28;20079;-73
2022/05/02 06:33:21;;;;;;;11.07;8.75;;;;;;;16.28;53.24;99152.44;5087083;28;20048;-73
2022/05/02 06:36:18;;;;;;;10.63;9.20;;;;;;;16.25;52.97;99152.69;5087851;28;20133;-73
2022/05/02 06:39:03;;;;;;;10.82;9.73;;;;;;;16.25;53.51;99142.84;5104770;28;20105;-73
2022/05/02 06:41:45;;;;;;;15.90;10.35;;;;;;;15.88;51.47;99128.09;5107549;28;20132;-73
2022/05/02 06:44:31;;;;;;;12.18;10.88;;;;;;;16.16;51.69;99151.59;5107758;28;20040;-73
2022/05/02 06:47:15;;;;;;;13.63;9.90;;;;;;;16.25;51.89;99150.84;5106867;28;20048;-73
2022/05/02 06:49:51;;;;;;;10.35;9.18;;;;;;;16.24;52.21;99150.97;5107661;28;20226;-73
2022/05/02 06:52:26;;;;;;;15.38;9.93;;;;;;;16.26;52.25;99147.22;5107674;28;20324;-74
2022/05/02 06:55:03;;;;;;;;;;;;;;;16.19;51.08;99145.16;5108090;28;20089;-73
2022/05/02 06:57:47;;;;;;;10.60;9.00;;;;;;;16.24;51.62;99141.13;5107573;28;19938;-73
2022/05/02 07:00:20;;;;;;;11.45;9.90;;;;;;;16.28;52.41;99139.06;5107766;28;20040;-73
2022/05/02 07:03:30;;;;;;;12.75;10.25;;;;;;;16.33;50.39;99139.53;5107130;28;20369;-73
2022/05/02 07:06:09;;;;;;;11.82;9.10;;;;;;;16.44;51.34;99141.31;5090841;28;20105;-73
2022/05/02 07:08:48;;;;;;;10.57;9.13;;;;;;;16.57;50.82;99148.19;5107489;28;20044;-73
2022/05/02 07:11:23;;;;;;;23.42;10.05;;;;;;;16.60;52.07;99141.75;5106584;28;20040;-73
2022/05/02 07:14:03;;;;;;;9.98;8.98;;;;;;;16.72;49.99;99146.09;5106497;28;20036;-73
2022/05/02 07:16:45;;;;;;;11.82;9.80;;;;;;;16.80;49.82;99143.63;5107437;28;20334;-73
2022/05/02 07:19:31;;;;;;;9.90;8.88;;;;;;;16.97;48.74;99144.88;5106579;28;20085;-73
2022/05/02 07:22:08;;;;;;;10.82;9.07;;;;;;;17.05;50.77;99141.56;5107338;28;20234;-73
2022/05/02 07:24:52;;;;;;;11.93;9.02;;;;;;;17.12;49.36;99140.06;5107257;28;20040;-74
2022/05/02 07:27:40;;;;;;;10.75;9.75;;;;;;;16.99;48.60;99095.59;5106757;28;20044;-73
2022/05/02 07:30:15;;;;;;;12.27;10.40;;;;;;;17.22;50.04;99106.19;5106416;28;20081;-74
2022/05/02 07:32:47;;;;;;;10.90;9.13;;;;;;;17.47;50.35;99140.56;5107096;28;20089;-73
2022/05/02 07:35:22;;;;;;;10.82;9.82;;;;;;;17.59;49.17;99136.81;5105871;28;20040;-73
2022/05/02 07:37:54;;;;;;;10.43;9.32;;;;;;;17.69;48.78;99142.25;5106663;28;20056;-73
2022/05/02 07:40:27;;;;;;;11.38;10.23;;;;;;;17.73;48.20;99130.28;5106866;28;20043;-74
2022/05/02 07:43:02;;;;;;;11.77;9.82;;;;;;;17.79;48.74;99132.44;5106711;28;20069;-73
2022/05/02 07:45:34;;;;;;;;;;;;;;;17.85;45.87;99131.03;5106601;28;20089;-74
2022/05/02 07:48:11;;;;;;;9.55;7.65;;;;;;;18.01;49.01;99133.19;5106978;28;19961;-73
2022/05/02 07:50:46;;;;;;;10.55;8.07;;;;;;;18.13;47.12;99132.09;5106810;28;20097;-74
2022/05/02 07:53:20;;;;;;;8.13;7.15;;;;;;;18.28;48.36;99133.41;5105887;28;20040;-73
2022/05/02 07:55:55;;;;;;;9.02;7.93;;;;;;;18.47;46.77;99129.91;5106555;28;20039;-73
2022/05/02 07:58:29;;;;;;;17.15;8.23;;;;;;;18.71;46.66;99122.31;5106409;28;20247;-73
2022/05/02 08:01:01;;;;;;;9.88;8.02;;;;;;;18.79;46.33;99126.97;5106732;28;20047;-74
2022/05/02 08:03:33;;;;;;;8.63;7.40;;;;;;;18.81;44.99;99130.34;5106287;28;20048;-74
2022/05/02 08:06:16;;;;;;;8.77;7.60;;;;;;;18.91;43.49;99123.13;5105657;28;20089;-73
2022/05/02 08:08:58;;;;;;;8.45;7.07;;;;;;;19.03;44.54;99132.75;5106078;28;20086;-73
2022/05/02 08:11:38;;;;;;;10.30;8.57;;;;;;;19.05;43.40;99124.53;5106048;28;20039;-74
2022/05/02 08:14:17;;;;;;;8.00;7.20;;;;;;;19.12;44.37;99126.50;5106074;28;20043;-73
2022/05/02 08:16:59;;;;;;;9.00;7.40;;;;;;;19.19;42.57;99126.78;5106373;28;20040;-73
2022/05/02 08:19:49;;;;;;;9.63;6.90;;;;;;;19.28;42.39;99133.97;5106107;28;20311;-73
2022/05/02 08:28:31;;;;;;;14.68;7.63;;;;;;;19.73;39.82;99079.50;5105595;28;20089;-73
2022/05/02 08:31:12;;;;;;;14.80;9.02;;;;;;;19.99;40.31;99120.88;5105223;28;20040;-73
2022/05/02 08:33:56;;;;;;;10.32;8.20;;;;;;;20.06;39.78;99107.66;5107067;28;20345;-74
2022/05/02 08:36:36;;;;;;;7.93;6.80;;;;;;;20.06;39.83;99113.91;5105958;28;20169;-74
2022/05/02 08:39:16;;;;;;;12.88;7.45;;;;;;;19.93;40.03;99073.06;5104451;28;20258;-74
2022/05/02 08:42:23;;;;;;;6.78;6.07;;;;;;;20.20;38.52;99104.47;5105516;28;20211;-74
2022/05/02 08:45:29;;;;;;;8.38;6.68;;;;;;;20.30;38.88;99109.81;5102510;28;20101;-73
2022/05/02 08:48:39;;;;;;;7.97;6.30;;;;;;;20.15;38.98;99061.03;5105013;28;20085;-73
2022/05/02 08:51:53;;;;;;;10.40;6.38;;;;;;;20.41;37.14;99104.22;5105588;28;20203;-73
2022/05/02 08:55:05;;;;;;;8.00;6.20;;;;;;;20.39;37.96;99109.75;5059811;28;20056;-74
2022/05/02 08:58:04;;;;;;;8.40;6.18;;;;;;;20.54;38.06;99109.22;5102898;28;20060;-74
2022/05/02 09:00:52;;;;;;;6.35;5.65;;;;;;;20.69;38.08;99105.81;5105631;28;20040;-73
2022/05/02 09:03:52;;;;;;;8.73;6.13;;;;;;;20.86;37.32;99100.56;5105222;28;20044;-74
2022/05/02 09:06:57;;;;;;;7.20;6.05;;;;;;;20.92;36.71;99098.09;5095225;28;20079;-73
2022/05/02 09:09:48;;;;;;;7.60;6.40;;;;;;;20.99;37.16;99107.25;5105287;28;20090;-74
2022/05/02 09:12:43;;;;;;;6.95;5.47;;;;;;;21.16;36.68;99097.47;5105678;28;20036;-73
2022/05/02 09:15:37;;;;;;;10.57;6.32;;;;;;;21.25;36.70;99090.28;5104765;28;20044;-73
2022/05/02 09:18:26;;;;;;;8.15;5.50;;;;;;;20.52;37.89;98938.94;5105477;28;20044;-73
2022/05/02 09:21:00;;;;;;;7.18;5.15;;;;;;;21.52;39.64;99082.00;5104687;28;20044;-73
2022/05/02 09:24:02;;;;;;;6.75;5.43;;;;;;;21.73;36.33;99087.00;5104453;28;20051;-73
2022/05/02 09:27:12;;;;;;;8.15;6.15;;;;;;;21.87;36.15;99080.16;5103887;28;20094;-74
2022/05/02 09:30:24;;;;;;;8.77;5.95;;;;;;;22.06;34.38;99079.91;5105100;28;20044;-74
2022/05/02 09:33:29;;;;;;;9.40;5.82;;;;;;;21.89;34.03;99080.84;5105318;28;20040;-73
2022/05/02 09:36:05;;;;;;;6.72;5.55;;;;;;;21.94;36.89;99084.75;5103994;28;20063;-73
2022/05/02 09:38:50;;;;;;;6.63;5.90;;;;;;;22.23;35.92;99070.84;5104748;28;20060;-73
2022/05/02 09:42:04;;;;;;;8.68;6.53;;;;;;;22.04;33.97;99042.28;5104426;28;20040;-74
2022/05/02 09:51:30;;;;;;;9.25;6.13;;;;;;;22.16;34.68;99074.34;5108702;28;20250;-73
2022/05/02 09:54:04;;;;;;;6.95;4.72;;;;;;;22.21;35.07;99067.44;5107757;28;20130;-73
2022/05/02 09:56:44;;;;;;;7.43;6.15;;;;;;;21.99;34.92;99036.53;5107719;28;20046;-73
2022/05/02 09:59:23;;;;;;;6.40;5.72;;;;;;;22.45;34.55;99073.94;5108864;28;20089;-72
2022/05/02 10:02:05;;;;;;;6.18;5.20;;;;;;;22.35;34.64;99065.97;5108089;28;20342;-72
2022/05/02 10:04:49;;;;;;;7.65;5.43;;;;;;;22.40;34.92;99063.59;5107543;28;20077;-73
2022/05/02 10:07:25;;;;;;;6.88;6.18;;;;;;;22.54;35.07;99062.13;5108372;28;20048;-73
2022/05/02 10:10:11;;;;;;;9.00;5.47;;;;;;;22.65;34.66;99056.44;5108820;28;20284;-73
2022/05/02 10:12:51;;;;;;;6.43;4.55;;;;;;;22.62;34.93;99046.81;5108203;28;20296;-73
2022/05/02 10:15:39;;;;;;;7.25;6.15;;;;;;;22.79;33.73;99044.09;5108391;28;20044;-73
2022/05/02 10:18:37;;;;;;;6.93;5.50;;;;;;;22.68;32.70;99042.59;5108250;28;20356;-73
2022/05/02 10:21:27;;;;;;;8.23;5.32;;;;;;;22.71;33.74;99045.78;5107381;28;20288;-73
2022/05/02 10:24:10;;;;;;;6.22;5.25;;;;;;;22.71;34.26;99036.84;5124737;28;20304;-73
2022/05/02 10:26:50;;;;;;;7.00;4.90;;;;;;;21.90;34.87;98880.22;5107729;28;20044;-73
2022/05/02 10:29:48;;;;;;;8.10;6.40;;;;;;;23.02;32.86;99043.22;5108120;28;20246;-73
2022/05/02 10:32:38;;;;;;;5.85;4.47;;;;;;;22.92;32.56;99041.72;5107622;28;20036;-73
2022/05/02 10:35:12;;;;;;;7.25;5.10;;;;;;;22.78;34.11;99028.91;5108374;28;20086;-73
2022/05/02 10:37:55;;;;;;;6.90;5.38;;;;;;;22.35;32.56;98999.31;5107843;28;20048;-73
2022/05/02 10:40:38;;;;;;;7.68;5.55;;;;;;;22.31;33.42;98987.16;5107728;28;20044;-73
2022/05/02 10:43:12;;;;;;;7.05;4.80;;;;;;;22.36;34.92;98987.50;5106588;28;20141;-73
2022/05/02 10:45:44;;;;;;;8.23;4.60;;;;;;;22.64;33.41;99014.22;5106743;28;20048;-72
2022/05/02 10:48:35;;;;;;;4.60;3.78;;;;;;;22.49;32.28;99011.31;5107487;28;20035;-72
2022/05/02 10:51:13;;;;;;;5.88;4.47;;;;;;;22.63;32.95;99012.53;5107544;28;20089;-73
2022/05/02 10:54:16;;;;;;;9.20;4.40;;;;;;;22.44;31.16;99012.84;5107238;28;20050;-73
2022/05/02 10:56:55;;;;;;;7.03;4.88;;;;;;;22.26;32.98;99013.81;5107457;28;20296;-73
2022/05/02 10:59:31;;;;;;;8.70;5.00;;;;;;;22.31;33.14;99016.00;5107650;28;20098;-73
2022/05/02 11:02:39;;;;;;;4.70;3.97;;;;;;;22.24;31.57;99006.91;5107316;28;20044;-72
2022/05/02 11:05:15;;;;;;;6.43;4.07;;;;;;;22.25;33.52;99011.28;5107467;28;20040;-73
2022/05/02 11:07:56;;;;;;;11.20;4.40;;;;;;;22.40;31.80;99007.78;5107261;28;20227;-73
2022/05/02 11:10:35;;;;;;;7.57;5.00;;;;;;;22.33;32.11;99005.88;5107068;28;20215;-72
2022/05/02 11:13:13;;;;;;;7.97;4.28;;;;;;;18.59;31.46;98385.44;5106892;28;20085;-72
2022/05/02 11:16:00;;;;;;;4.88;4.38;;;;;;;22.05;32.16;98967.56;5106692;28;20234;-73
2022/05/02 11:21:50;;;;;;;5.03;3.97;;;;;;;22.23;31.79;98997.94;5106299;28;20279;-73
2022/05/02 11:24:38;;;;;;;4.20;3.33;;;;;;;22.24;32.40;98991.53;5105923;28;20040;-73
2022/05/02 11:27:24;;;;;;;5.18;4.03;;;;;;;22.26;31.79;98983.28;5106733;28;20199;-74
2022/05/02 11:30:04;;;;;;;4.82;3.72;;;;;;;22.14;31.96;98985.47;5106853;28;20044;-74
2022/05/02 11:32:51;;;;;;;7.45;4.70;;;;;;;22.00;31.83;98989.66;5106783;28;20207;-74
2022/05/02 11:35:25;;;;;;;6.45;4.35;;;;;;;21.68;32.19;98979.59;5107099;28;20089;-72
2022/05/02 11:38:03;;;;;;;;;;;;;;;21.77;31.43;98989.41;5106944;28;20052;-73
2022/05/02 11:40:44;;;;;;;6.40;3.97;;;;;;;21.95;31.40;98980.38;5106730;28;19916;-73
2022/05/02 11:43:21;;;;;;;4.45;3.22;;;;;;;21.21;31.60;98836.44;5106085;28;20333;-73
2022/05/02 11:46:15;;;;;;;4.63;3.35;;;;;;;22.27;31.35;98968.78;5106537;28;20040;-73
2022/05/02 11:49:19;;;;;;;3.80;3.20;;;;;;;22.31;31.40;98970.13;5106712;28;20081;-73
2022/05/02 11:51:53;;;;;;;8.48;3.25;;;;;;;21.87;31.07;98975.81;5106734;28;20043;-74
2022/05/02 11:54:30;;;;;;;;;;;;;;;21.54;30.41;98963.22;5107005;28;20044;-73
2022/05/02 11:57:14;;;;;;;5.20;4.25;;;;;;;21.67;31.74;98971.69;5105863;28;19920;-73
2022/05/02 12:00:07;;;;;;;3.53;2.83;;;;;;;21.62;32.01;98965.94;5106230;28;20105;-73
2022/05/02 12:02:43;;;;;;;5.10;3.60;;;;;;;21.54;33.09;98960.53;5106086;28;20044;-74
2022/05/02 12:05:26;;;;;;;4.00;3.20;;;;;;;21.65;32.41;98954.81;5106375;28;20036;-73
2022/05/02 12:07:59;;;;;;;5.82;3.38;;;;;;;21.22;32.96;98880.41;5105745;28;20044;-73
2022/05/02 12:10:35;;;;;;;4.07;3.35;;;;;;;21.38;32.94;98894.75;5106103;28;20246;-73
2022/05/02 12:13:10;;;;;;;4.85;3.50;;;;;;;21.64;33.45;98958.53;5105340;28;20074;-73
2022/05/02 12:15:58;;;;;;;5.57;3.10;;;;;;;21.41;32.42;98902.53;5105998;28;20036;-73
2022/05/02 12:18:42;;;;;;;7.93;3.55;;;;;;;21.64;32.58;98934.25;5106134;28;20089;-73
2022/05/02 12:21:23;;;;;;;5.93;3.65;;;;;;;21.74;32.58;98943.03;5106114;28;20082;-74
2022/05/02 12:23:58;;;;;;;6.15;4.35;;;;;;;21.78;32.66;98942.53;5105117;28;20046;-74
2022/05/02 12:26:33;;;;;;;4.45;3.47;;;;;;;21.76;32.98;98943.72;5105934;28;20036;-74
2022/05/02 12:29:04;;;;;;;5.65;3.40;;;;;;;21.77;33.03;98940.84;5105643;28;20056;-74
2022/05/02 12:31:38;;;;;;;4.30;3.60;;;;;;;21.78;33.08;98929.06;5105955;28;20042;-74
2022/05/02 12:34:07;;;;;;;4.60;3.78;;;;;;;22.02;33.33;98927.44;5104471;28;20062;-74
2022/05/02 12:36:50;;;;;;;5.03;3.78;;;;;;;21.92;32.62;98932.16;5105780;28;20077;-74
2022/05/02 12:39:26;;;;;;;4.95;3.80;;;;;;;21.87;32.87;98929.09;5085546;28;20052;-74
2022/05/02 12:42:12;;;;;;;6.30;3.75;;;;;;;21.92;33.60;98927.59;5085118;28;20040;-73
2022/05/02 12:44:46;;;;;;;5.55;3.90;;;;;;;22.10;33.69;98922.88;5085419;28;20044;-74
2022/05/02 12:47:23;;;;;;;5.95;3.88;;;;;;;21.86;32.86;98879.72;5085062;28;20123;-74
2022/05/02 12:50:05;;;;;;;5.07;4.20;;;;;;;22.09;32.52;98918.50;5085161;28;20066;-74